sensor_id;sensor_type;location;lat;lon;timestamp;P1;durP1;ratioP1;P2;durP2;ratioP2
30169;SDS011;46426;51.368;5.254;2024-03-22T00:00:02;23.50;;;17.58;;
30169;SDS011;46426;51.368;5.254;2024-03-22T00:00:42;27.10;;;19.17;;
30169;SDS011;46426;51.368;5.254;2024-03-22T00:01:14;26.63;;;20.42;;
30169;SDS011;46426;51.368;5.254;2024-03-22T00:01:45;28.02;;;20.65;;
30169;SDS011;46426;51.368;5.254;2024-03-22T00:02:16;27.73;;;19.73;;
30169;SDS011;46426;51.368;5.254;2024-03-22T00:02:47;26.83;;;19.48;;
30169;SDS011;46426;51.368;5.254;2024-03-22T00:03:18;26.33;;;18.83;;
30169;SDS011;46426;51.368;5.254;2024-03-22T00:03:51;27.47;;;19.60;;
30169;SDS011;46426;51.368;5.254;2024-03-22T00:04:22;25.67;;;18.70;;
30169;SDS011;46426;51.368;5.254;2024-03-22T00:04:53;25.52;;;18.63;;
30169;SDS011;46426;51.368;5.254;2024-03-22T00:05:24;27.98;;;19.23;;
30169;SDS011;46426;51.368;5.254;2024-03-22T00:05:55;29.38;;;17.85;;
30169;SDS011;46426;51.368;5.254;2024-03-22T00:06:27;25.07;;;18.80;;
30169;SDS011;46426;51.368;5.254;2024-03-22T00:06:58;23.85;;;18.33;;
30169;SDS011;46426;51.368;5.254;2024-03-22T00:07:29;24.97;;;18.33;;
30169;SDS011;46426;51.368;5.254;2024-03-22T00:08:00;25.30;;;19.07;;
30169;SDS011;46426;51.368;5.254;2024-03-22T00:08:31;24.03;;;17.47;;
30169;SDS011;46426;51.368;5.254;2024-03-22T00:09:02;26.73;;;18.30;;
30169;SDS011;46426;51.368;5.254;2024-03-22T00:09:34;26.47;;;18.63;;
30169;SDS011;46426;51.368;5.254;2024-03-22T00:10:05;25.43;;;18.27;;
30169;SDS011;46426;51.368;5.254;2024-03-22T00:10:37;23.73;;;18.03;;
30169;SDS011;46426;51.368;5.254;2024-03-22T00:11:08;24.58;;;17.77;;
30169;SDS011;46426;51.368;5.254;2024-03-22T00:11:39;23.40;;;17.40;;
30169;SDS011;46426;51.368;5.254;2024-03-22T00:12:10;23.33;;;16.70;;
30169;SDS011;46426;51.368;5.254;2024-03-22T00:12:42;25.90;;;18.23;;
30169;SDS011;46426;51.368;5.254;2024-03-22T00:13:13;28.67;;;19.20;;
30169;SDS011;46426;51.368;5.254;2024-03-22T00:13:44;25.27;;;18.07;;
30169;SDS011;46426;51.368;5.254;2024-03-22T00:14:15;28.13;;;19.55;;
30169;SDS011;46426;51.368;5.254;2024-03-22T00:14:46;24.80;;;20.20;;
30169;SDS011;46426;51.368;5.254;2024-03-22T00:15:17;27.48;;;20.23;;
30169;SDS011;46426;51.368;5.254;2024-03-22T00:15:49;26.63;;;19.38;;
30169;SDS011;46426;51.368;5.254;2024-03-22T00:16:20;27.13;;;18.92;;
30169;SDS011;46426;51.368;5.254;2024-03-22T00:16:51;27.00;;;19.95;;
30169;SDS011;46426;51.368;5.254;2024-03-22T00:17:22;24.92;;;19.15;;
30169;SDS011;46426;51.368;5.254;2024-03-22T00:17:53;24.98;;;18.88;;
30169;SDS011;46426;51.368;5.254;2024-03-22T00:18:24;25.17;;;18.98;;
30169;SDS011;46426;51.368;5.254;2024-03-22T00:18:55;26.33;;;18.52;;
30169;SDS011;46426;51.368;5.254;2024-03-22T00:19:27;25.88;;;18.25;;
30169;SDS011;46426;51.368;5.254;2024-03-22T00:19:58;23.07;;;18.77;;
30169;SDS011;46426;51.368;5.254;2024-03-22T00:20:29;26.90;;;18.60;;
30169;SDS011;46426;51.368;5.254;2024-03-22T00:21:00;24.42;;;18.38;;
30169;SDS011;46426;51.368;5.254;2024-03-22T00:21:32;23.52;;;18.73;;
30169;SDS011;46426;51.368;5.254;2024-03-22T00:22:04;25.95;;;19.63;;
30169;SDS011;46426;51.368;5.254;2024-03-22T00:22:35;26.80;;;19.13;;
30169;SDS011;46426;51.368;5.254;2024-03-22T00:23:06;27.95;;;18.95;;
30169;SDS011;46426;51.368;5.254;2024-03-22T00:23:37;27.25;;;20.10;;
30169;SDS011;46426;51.368;5.254;2024-03-22T00:24:09;28.05;;;19.67;;
30169;SDS011;46426;51.368;5.254;2024-03-22T00:24:40;24.92;;;19.25;;
30169;SDS011;46426;51.368;5.254;2024-03-22T00:25:11;25.73;;;19.98;;
30169;SDS011;46426;51.368;5.254;2024-03-22T00:25:42;28.08;;;20.23;;
30169;SDS011;46426;51.368;5.254;2024-03-22T00:26:14;26.37;;;19.60;;
30169;SDS011;46426;51.368;5.254;2024-03-22T00:26:45;27.83;;;19.42;;
30169;SDS011;46426;51.368;5.254;2024-03-22T00:27:20;24.90;;;18.63;;
30169;SDS011;46426;51.368;5.254;2024-03-22T00:27:51;25.58;;;19.75;;
30169;SDS011;46426;51.368;5.254;2024-03-22T00:28:22;30.08;;;21.08;;
30169;SDS011;46426;51.368;5.254;2024-03-22T00:28:53;31.50;;;20.77;;
30169;SDS011;46426;51.368;5.254;2024-03-22T00:29:24;26.08;;;20.23;;
30169;SDS011;46426;51.368;5.254;2024-03-22T00:29:57;25.67;;;20.87;;
30169;SDS011;46426;51.368;5.254;2024-03-22T00:30:28;27.02;;;19.45;;
30169;SDS011;46426;51.368;5.254;2024-03-22T00:30:59;26.33;;;19.57;;
30169;SDS011;46426;51.368;5.254;2024-03-22T00:31:30;28.80;;;19.63;;
30169;SDS011;46426;51.368;5.254;2024-03-22T00:32:01;28.98;;;20.67;;
30169;SDS011;46426;51.368;5.254;2024-03-22T00:32:32;26.67;;;20.55;;
30169;SDS011;46426;51.368;5.254;2024-03-22T00:33:03;25.63;;;19.98;;
30169;SDS011;46426;51.368;5.254;2024-03-22T00:33:35;26.95;;;20.45;;
30169;SDS011;46426;51.368;5.254;2024-03-22T00:34:06;29.37;;;20.60;;
30169;SDS011;46426;51.368;5.254;2024-03-22T00:34:37;26.27;;;19.58;;
30169;SDS011;46426;51.368;5.254;2024-03-22T00:35:08;26.23;;;19.10;;
30169;SDS011;46426;51.368;5.254;2024-03-22T00:35:39;26.23;;;19.90;;
30169;SDS011;46426;51.368;5.254;2024-03-22T00:36:10;24.95;;;19.63;;
30169;SDS011;46426;51.368;5.254;2024-03-22T00:36:42;27.40;;;20.17;;
30169;SDS011;46426;51.368;5.254;2024-03-22T00:37:13;27.48;;;20.15;;
30169;SDS011;46426;51.368;5.254;2024-03-22T00:37:44;26.90;;;20.15;;
30169;SDS011;46426;51.368;5.254;2024-03-22T00:38:16;25.50;;;19.70;;
30169;SDS011;46426;51.368;5.254;2024-03-22T00:38:48;25.73;;;20.33;;
30169;SDS011;46426;51.368;5.254;2024-03-22T00:39:19;26.05;;;20.80;;
30169;SDS011;46426;51.368;5.254;2024-03-22T00:39:50;25.98;;;20.80;;
30169;SDS011;46426;51.368;5.254;2024-03-22T00:40:21;26.45;;;20.85;;
30169;SDS011;46426;51.368;5.254;2024-03-22T00:40:52;26.23;;;20.50;;
30169;SDS011;46426;51.368;5.254;2024-03-22T00:41:23;27.00;;;20.38;;
30169;SDS011;46426;51.368;5.254;2024-03-22T00:41:54;26.30;;;21.42;;
30169;SDS011;46426;51.368;5.254;2024-03-22T00:42:25;27.40;;;21.23;;
30169;SDS011;46426;51.368;5.254;2024-03-22T00:42:57;26.77;;;19.70;;
30169;SDS011;46426;51.368;5.254;2024-03-22T00:43:28;26.50;;;19.83;;
30169;SDS011;46426;51.368;5.254;2024-03-22T00:43:59;27.60;;;19.05;;
30169;SDS011;46426;51.368;5.254;2024-03-22T00:44:30;28.43;;;21.23;;
30169;SDS011;46426;51.368;5.254;2024-03-22T00:45:01;30.00;;;21.53;;
30169;SDS011;46426;51.368;5.254;2024-03-22T00:45:33;27.10;;;20.97;;
30169;SDS011;46426;51.368;5.254;2024-03-22T00:46:04;27.70;;;21.25;;
30169;SDS011;46426;51.368;5.254;2024-03-22T00:46:35;26.40;;;19.92;;
30169;SDS011;46426;51.368;5.254;2024-03-22T00:47:06;26.48;;;20.00;;
30169;SDS011;46426;51.368;5.254;2024-03-22T00:47:38;27.37;;;20.00;;
30169;SDS011;46426;51.368;5.254;2024-03-22T00:48:09;28.38;;;20.70;;
30169;SDS011;46426;51.368;5.254;2024-03-22T00:48:40;27.53;;;19.57;;
30169;SDS011;46426;51.368;5.254;2024-03-22T00:49:11;26.40;;;19.77;;
30169;SDS011;46426;51.368;5.254;2024-03-22T00:49:43;25.65;;;19.83;;
30169;SDS011;46426;51.368;5.254;2024-03-22T00:50:14;25.33;;;20.25;;
30169;SDS011;46426;51.368;5.254;2024-03-22T00:50:45;27.63;;;20.25;;
30169;SDS011;46426;51.368;5.254;2024-03-22T00:51:16;26.13;;;21.27;;
30169;SDS011;46426;51.368;5.254;2024-03-22T00:51:47;27.57;;;20.30;;
30169;SDS011;46426;51.368;5.254;2024-03-22T00:52:19;24.60;;;19.10;;
30169;SDS011;46426;51.368;5.254;2024-03-22T00:52:50;25.63;;;19.95;;
30169;SDS011;46426;51.368;5.254;2024-03-22T00:53:23;27.07;;;21.67;;
30169;SDS011;46426;51.368;5.254;2024-03-22T00:53:54;27.23;;;20.15;;
30169;SDS011;46426;51.368;5.254;2024-03-22T00:54:25;27.45;;;21.00;;
30169;SDS011;46426;51.368;5.254;2024-03-22T00:54:56;27.40;;;20.65;;
30169;SDS011;46426;51.368;5.254;2024-03-22T00:55:27;24.53;;;20.27;;
30169;SDS011;46426;51.368;5.254;2024-03-22T00:55:58;28.45;;;21.08;;
30169;SDS011;46426;51.368;5.254;2024-03-22T00:56:30;26.42;;;20.05;;
30169;SDS011;46426;51.368;5.254;2024-03-22T00:57:01;27.23;;;20.73;;
30169;SDS011;46426;51.368;5.254;2024-03-22T00:57:32;25.33;;;19.50;;
30169;SDS011;46426;51.368;5.254;2024-03-22T00:58:03;31.20;;;19.67;;
30169;SDS011;46426;51.368;5.254;2024-03-22T00:58:34;29.90;;;22.00;;
30169;SDS011;46426;51.368;5.254;2024-03-22T00:59:06;27.63;;;19.35;;
30169;SDS011;46426;51.368;5.254;2024-03-22T00:59:37;30.05;;;21.45;;
30169;SDS011;46426;51.368;5.254;2024-03-22T01:00:08;27.88;;;20.70;;
30169;SDS011;46426;51.368;5.254;2024-03-22T01:00:40;29.73;;;21.47;;
30169;SDS011;46426;51.368;5.254;2024-03-22T01:01:11;29.80;;;20.30;;
30169;SDS011;46426;51.368;5.254;2024-03-22T01:01:43;27.42;;;20.42;;
30169;SDS011;46426;51.368;5.254;2024-03-22T01:02:14;26.85;;;20.50;;
30169;SDS011;46426;51.368;5.254;2024-03-22T01:02:45;29.43;;;21.10;;
30169;SDS011;46426;51.368;5.254;2024-03-22T01:03:16;26.60;;;20.87;;
30169;SDS011;46426;51.368;5.254;2024-03-22T01:03:47;25.92;;;19.83;;
30169;SDS011;46426;51.368;5.254;2024-03-22T01:04:18;26.50;;;20.60;;
30169;SDS011;46426;51.368;5.254;2024-03-22T01:04:50;26.67;;;19.27;;
30169;SDS011;46426;51.368;5.254;2024-03-22T01:05:21;26.85;;;19.90;;
30169;SDS011;46426;51.368;5.254;2024-03-22T01:05:52;26.57;;;19.40;;
30169;SDS011;46426;51.368;5.254;2024-03-22T01:06:23;25.45;;;20.05;;
30169;SDS011;46426;51.368;5.254;2024-03-22T01:06:56;25.97;;;18.90;;
30169;SDS011;46426;51.368;5.254;2024-03-22T01:07:27;23.27;;;17.97;;
30169;SDS011;46426;51.368;5.254;2024-03-22T01:07:58;25.27;;;19.07;;
30169;SDS011;46426;51.368;5.254;2024-03-22T01:08:29;25.55;;;19.23;;
30169;SDS011;46426;51.368;5.254;2024-03-22T01:09:00;25.17;;;19.55;;
30169;SDS011;46426;51.368;5.254;2024-03-22T01:09:31;26.00;;;19.73;;
30169;SDS011;46426;51.368;5.254;2024-03-22T01:10:03;24.30;;;19.90;;
30169;SDS011;46426;51.368;5.254;2024-03-22T01:10:34;26.70;;;20.33;;
30169;SDS011;46426;51.368;5.254;2024-03-22T01:11:05;23.13;;;19.27;;
30169;SDS011;46426;51.368;5.254;2024-03-22T01:11:36;25.60;;;19.45;;
30169;SDS011;46426;51.368;5.254;2024-03-22T01:12:07;26.35;;;19.85;;
30169;SDS011;46426;51.368;5.254;2024-03-22T01:12:39;24.25;;;18.98;;
30169;SDS011;46426;51.368;5.254;2024-03-22T01:13:10;25.60;;;19.08;;
30169;SDS011;46426;51.368;5.254;2024-03-22T01:13:41;23.33;;;18.27;;
30169;SDS011;46426;51.368;5.254;2024-03-22T01:14:12;25.17;;;19.43;;
30169;SDS011;46426;51.368;5.254;2024-03-22T01:14:43;26.00;;;19.90;;
30169;SDS011;46426;51.368;5.254;2024-03-22T01:15:14;25.70;;;19.67;;
30169;SDS011;46426;51.368;5.254;2024-03-22T01:15:45;28.07;;;19.97;;
30169;SDS011;46426;51.368;5.254;2024-03-22T01:16:17;26.58;;;19.95;;
30169;SDS011;46426;51.368;5.254;2024-03-22T01:16:48;26.48;;;19.67;;
30169;SDS011;46426;51.368;5.254;2024-03-22T01:17:19;25.42;;;19.45;;
30169;SDS011;46426;51.368;5.254;2024-03-22T01:17:50;23.80;;;18.45;;
30169;SDS011;46426;51.368;5.254;2024-03-22T01:18:21;27.95;;;20.35;;
30169;SDS011;46426;51.368;5.254;2024-03-22T01:18:52;25.98;;;20.48;;
30169;SDS011;46426;51.368;5.254;2024-03-22T01:19:23;25.92;;;19.60;;
30169;SDS011;46426;51.368;5.254;2024-03-22T01:19:54;26.65;;;18.92;;
30169;SDS011;46426;51.368;5.254;2024-03-22T01:20:25;27.83;;;19.85;;
30169;SDS011;46426;51.368;5.254;2024-03-22T01:20:56;25.20;;;19.58;;
30169;SDS011;46426;51.368;5.254;2024-03-22T01:21:28;27.73;;;19.95;;
30169;SDS011;46426;51.368;5.254;2024-03-22T01:21:59;25.83;;;19.40;;
30169;SDS011;46426;51.368;5.254;2024-03-22T01:22:30;26.77;;;19.60;;
30169;SDS011;46426;51.368;5.254;2024-03-22T01:23:01;25.95;;;20.30;;
30169;SDS011;46426;51.368;5.254;2024-03-22T01:23:32;24.80;;;19.42;;
30169;SDS011;46426;51.368;5.254;2024-03-22T01:24:04;24.52;;;19.23;;
30169;SDS011;46426;51.368;5.254;2024-03-22T01:24:35;26.03;;;19.23;;
30169;SDS011;46426;51.368;5.254;2024-03-22T01:25:06;23.60;;;19.30;;
30169;SDS011;46426;51.368;5.254;2024-03-22T01:25:37;25.13;;;19.92;;
30169;SDS011;46426;51.368;5.254;2024-03-22T01:26:09;22.80;;;18.20;;
30169;SDS011;46426;51.368;5.254;2024-03-22T01:26:40;24.00;;;19.20;;
30169;SDS011;46426;51.368;5.254;2024-03-22T01:27:11;29.33;;;20.60;;
30169;SDS011;46426;51.368;5.254;2024-03-22T01:27:42;29.07;;;19.93;;
30169;SDS011;46426;51.368;5.254;2024-03-22T01:28:13;26.77;;;19.20;;
30169;SDS011;46426;51.368;5.254;2024-03-22T01:28:45;22.57;;;18.13;;
30169;SDS011;46426;51.368;5.254;2024-03-22T01:29:16;26.07;;;20.20;;
30169;SDS011;46426;51.368;5.254;2024-03-22T01:29:47;25.98;;;20.08;;
30169;SDS011;46426;51.368;5.254;2024-03-22T01:30:19;24.10;;;19.02;;
30169;SDS011;46426;51.368;5.254;2024-03-22T01:30:50;25.53;;;19.00;;
30169;SDS011;46426;51.368;5.254;2024-03-22T01:31:21;24.70;;;17.50;;
30169;SDS011;46426;51.368;5.254;2024-03-22T01:31:52;23.07;;;18.90;;
30169;SDS011;46426;51.368;5.254;2024-03-22T01:32:23;24.43;;;18.57;;
30169;SDS011;46426;51.368;5.254;2024-03-22T01:32:54;25.30;;;19.17;;
30169;SDS011;46426;51.368;5.254;2024-03-22T01:33:25;24.33;;;18.83;;
30169;SDS011;46426;51.368;5.254;2024-03-22T01:33:57;23.70;;;18.73;;
30169;SDS011;46426;51.368;5.254;2024-03-22T01:34:28;25.10;;;19.07;;
30169;SDS011;46426;51.368;5.254;2024-03-22T01:34:59;24.40;;;18.97;;
30169;SDS011;46426;51.368;5.254;2024-03-22T01:35:31;26.88;;;20.77;;
30169;SDS011;46426;51.368;5.254;2024-03-22T01:36:02;26.60;;;18.70;;
30169;SDS011;46426;51.368;5.254;2024-03-22T01:36:35;28.83;;;19.33;;
30169;SDS011;46426;51.368;5.254;2024-03-22T01:37:06;24.67;;;18.90;;
30169;SDS011;46426;51.368;5.254;2024-03-22T01:37:37;25.63;;;18.77;;
30169;SDS011;46426;51.368;5.254;2024-03-22T01:38:08;24.88;;;18.13;;
30169;SDS011;46426;51.368;5.254;2024-03-22T01:38:39;24.40;;;18.48;;
30169;SDS011;46426;51.368;5.254;2024-03-22T01:39:10;24.97;;;18.63;;
30169;SDS011;46426;51.368;5.254;2024-03-22T01:39:42;24.37;;;18.07;;
30169;SDS011;46426;51.368;5.254;2024-03-22T01:40:13;24.38;;;17.52;;
30169;SDS011;46426;51.368;5.254;2024-03-22T01:40:44;25.98;;;18.27;;
30169;SDS011;46426;51.368;5.254;2024-03-22T01:41:15;24.07;;;17.33;;
30169;SDS011;46426;51.368;5.254;2024-03-22T01:41:47;25.70;;;18.63;;
30169;SDS011;46426;51.368;5.254;2024-03-22T01:42:18;22.70;;;17.58;;
30169;SDS011;46426;51.368;5.254;2024-03-22T01:42:52;26.25;;;20.23;;
30169;SDS011;46426;51.368;5.254;2024-03-22T01:43:23;27.07;;;18.20;;
30169;SDS011;46426;51.368;5.254;2024-03-22T01:43:54;22.77;;;17.57;;
30169;SDS011;46426;51.368;5.254;2024-03-22T01:44:28;24.47;;;18.67;;
30169;SDS011;46426;51.368;5.254;2024-03-22T01:45:00;23.60;;;18.13;;
30169;SDS011;46426;51.368;5.254;2024-03-22T01:45:32;22.80;;;17.27;;
30169;SDS011;46426;51.368;5.254;2024-03-22T01:46:04;21.73;;;17.23;;
30169;SDS011;46426;51.368;5.254;2024-03-22T01:46:35;25.03;;;17.70;;
30169;SDS011;46426;51.368;5.254;2024-03-22T01:47:06;25.58;;;18.20;;
30169;SDS011;46426;51.368;5.254;2024-03-22T01:47:38;21.67;;;17.93;;
30169;SDS011;46426;51.368;5.254;2024-03-22T01:48:09;23.07;;;18.17;;
30169;SDS011;46426;51.368;5.254;2024-03-22T01:48:40;23.60;;;19.03;;
30169;SDS011;46426;51.368;5.254;2024-03-22T01:49:12;21.67;;;17.37;;
30169;SDS011;46426;51.368;5.254;2024-03-22T01:49:44;25.13;;;18.53;;
30169;SDS011;46426;51.368;5.254;2024-03-22T01:50:15;22.90;;;17.40;;
30169;SDS011;46426;51.368;5.254;2024-03-22T01:50:46;26.43;;;18.63;;
30169;SDS011;46426;51.368;5.254;2024-03-22T01:51:18;23.00;;;17.77;;
30169;SDS011;46426;51.368;5.254;2024-03-22T01:51:49;25.13;;;18.00;;
30169;SDS011;46426;51.368;5.254;2024-03-22T01:52:20;24.27;;;18.00;;
30169;SDS011;46426;51.368;5.254;2024-03-22T01:52:51;22.53;;;17.73;;
30169;SDS011;46426;51.368;5.254;2024-03-22T01:53:22;24.13;;;18.63;;
30169;SDS011;46426;51.368;5.254;2024-03-22T01:53:54;22.90;;;18.20;;
30169;SDS011;46426;51.368;5.254;2024-03-22T01:54:25;23.87;;;18.30;;
30169;SDS011;46426;51.368;5.254;2024-03-22T01:54:56;24.37;;;18.57;;
30169;SDS011;46426;51.368;5.254;2024-03-22T01:55:27;21.27;;;18.07;;
30169;SDS011;46426;51.368;5.254;2024-03-22T01:56:00;24.87;;;18.60;;
30169;SDS011;46426;51.368;5.254;2024-03-22T01:56:31;24.10;;;17.63;;
30169;SDS011;46426;51.368;5.254;2024-03-22T01:57:02;23.77;;;17.93;;
30169;SDS011;46426;51.368;5.254;2024-03-22T01:57:33;24.07;;;18.00;;
30169;SDS011;46426;51.368;5.254;2024-03-22T01:58:05;25.73;;;17.67;;
30169;SDS011;46426;51.368;5.254;2024-03-22T01:58:36;23.97;;;17.70;;
30169;SDS011;46426;51.368;5.254;2024-03-22T01:59:07;24.77;;;18.67;;
30169;SDS011;46426;51.368;5.254;2024-03-22T01:59:38;23.57;;;18.13;;
30169;SDS011;46426;51.368;5.254;2024-03-22T02:00:10;24.73;;;17.57;;
30169;SDS011;46426;51.368;5.254;2024-03-22T02:00:47;24.53;;;17.83;;
30169;SDS011;46426;51.368;5.254;2024-03-22T02:01:18;24.80;;;18.30;;
30169;SDS011;46426;51.368;5.254;2024-03-22T02:01:49;21.67;;;17.73;;
30169;SDS011;46426;51.368;5.254;2024-03-22T02:02:20;21.77;;;17.60;;
30169;SDS011;46426;51.368;5.254;2024-03-22T02:02:51;24.27;;;18.73;;
30169;SDS011;46426;51.368;5.254;2024-03-22T02:03:23;23.23;;;17.70;;
30169;SDS011;46426;51.368;5.254;2024-03-22T02:03:54;24.73;;;18.37;;
30169;SDS011;46426;51.368;5.254;2024-03-22T02:04:25;24.10;;;18.33;;
30169;SDS011;46426;51.368;5.254;2024-03-22T02:04:56;25.57;;;18.00;;
30169;SDS011;46426;51.368;5.254;2024-03-22T02:05:27;23.60;;;18.50;;
30169;SDS011;46426;51.368;5.254;2024-03-22T02:05:58;23.70;;;18.17;;
30169;SDS011;46426;51.368;5.254;2024-03-22T02:06:29;23.40;;;17.63;;
30169;SDS011;46426;51.368;5.254;2024-03-22T02:07:01;23.07;;;17.70;;
30169;SDS011;46426;51.368;5.254;2024-03-22T02:07:32;25.23;;;19.03;;
30169;SDS011;46426;51.368;5.254;2024-03-22T02:08:03;22.87;;;18.20;;
30169;SDS011;46426;51.368;5.254;2024-03-22T02:08:34;26.37;;;20.27;;
30169;SDS011;46426;51.368;5.254;2024-03-22T02:09:05;24.90;;;18.43;;
30169;SDS011;46426;51.368;5.254;2024-03-22T02:09:36;21.77;;;18.23;;
30169;SDS011;46426;51.368;5.254;2024-03-22T02:10:08;24.63;;;18.47;;
30169;SDS011;46426;51.368;5.254;2024-03-22T02:10:42;25.57;;;19.37;;
30169;SDS011;46426;51.368;5.254;2024-03-22T02:11:14;23.63;;;17.83;;
30169;SDS011;46426;51.368;5.254;2024-03-22T02:11:45;24.07;;;18.37;;
30169;SDS011;46426;51.368;5.254;2024-03-22T02:12:16;23.43;;;17.77;;
30169;SDS011;46426;51.368;5.254;2024-03-22T02:12:47;24.03;;;17.77;;
30169;SDS011;46426;51.368;5.254;2024-03-22T02:13:19;21.63;;;17.57;;
30169;SDS011;46426;51.368;5.254;2024-03-22T02:13:50;24.93;;;18.97;;
30169;SDS011;46426;51.368;5.254;2024-03-22T02:14:21;22.63;;;17.37;;
30169;SDS011;46426;51.368;5.254;2024-03-22T02:14:52;21.50;;;16.40;;
30169;SDS011;46426;51.368;5.254;2024-03-22T02:15:23;22.47;;;17.73;;
30169;SDS011;46426;51.368;5.254;2024-03-22T02:15:54;21.97;;;17.77;;
30169;SDS011;46426;51.368;5.254;2024-03-22T02:16:26;22.90;;;17.47;;
30169;SDS011;46426;51.368;5.254;2024-03-22T02:16:57;24.97;;;17.97;;
30169;SDS011;46426;51.368;5.254;2024-03-22T02:17:28;21.77;;;16.20;;
30169;SDS011;46426;51.368;5.254;2024-03-22T02:17:59;23.20;;;17.13;;
30169;SDS011;46426;51.368;5.254;2024-03-22T02:18:30;21.03;;;16.47;;
30169;SDS011;46426;51.368;5.254;2024-03-22T02:19:01;24.33;;;17.40;;
30169;SDS011;46426;51.368;5.254;2024-03-22T02:19:33;22.97;;;17.27;;
30169;SDS011;46426;51.368;5.254;2024-03-22T02:20:04;21.50;;;16.00;;
30169;SDS011;46426;51.368;5.254;2024-03-22T02:20:36;23.57;;;16.80;;
30169;SDS011;46426;51.368;5.254;2024-03-22T02:21:07;23.97;;;16.80;;
30169;SDS011;46426;51.368;5.254;2024-03-22T02:21:38;21.73;;;15.63;;
30169;SDS011;46426;51.368;5.254;2024-03-22T02:22:09;20.73;;;17.23;;
30169;SDS011;46426;51.368;5.254;2024-03-22T02:22:40;20.77;;;15.83;;
30169;SDS011;46426;51.368;5.254;2024-03-22T02:23:11;20.93;;;16.53;;
30169;SDS011;46426;51.368;5.254;2024-03-22T02:23:42;23.47;;;17.43;;
30169;SDS011;46426;51.368;5.254;2024-03-22T02:24:14;22.60;;;16.40;;
30169;SDS011;46426;51.368;5.254;2024-03-22T02:24:45;23.87;;;17.43;;
30169;SDS011;46426;51.368;5.254;2024-03-22T02:25:16;23.83;;;17.57;;
30169;SDS011;46426;51.368;5.254;2024-03-22T02:25:47;21.47;;;17.17;;
30169;SDS011;46426;51.368;5.254;2024-03-22T02:26:18;20.80;;;16.90;;
30169;SDS011;46426;51.368;5.254;2024-03-22T02:26:49;23.73;;;16.67;;
30169;SDS011;46426;51.368;5.254;2024-03-22T02:27:20;21.17;;;16.30;;
30169;SDS011;46426;51.368;5.254;2024-03-22T02:27:51;21.80;;;16.07;;
30169;SDS011;46426;51.368;5.254;2024-03-22T02:28:22;23.17;;;16.27;;
30169;SDS011;46426;51.368;5.254;2024-03-22T02:28:54;22.63;;;17.40;;
30169;SDS011;46426;51.368;5.254;2024-03-22T02:29:25;22.27;;;17.33;;
30169;SDS011;46426;51.368;5.254;2024-03-22T02:29:56;24.73;;;16.67;;
30169;SDS011;46426;51.368;5.254;2024-03-22T02:30:27;23.53;;;17.77;;
30169;SDS011;46426;51.368;5.254;2024-03-22T02:30:58;22.38;;;16.98;;
30169;SDS011;46426;51.368;5.254;2024-03-22T02:31:30;25.43;;;18.93;;
30169;SDS011;46426;51.368;5.254;2024-03-22T02:32:01;22.27;;;16.30;;
30169;SDS011;46426;51.368;5.254;2024-03-22T02:32:32;24.90;;;17.57;;
30169;SDS011;46426;51.368;5.254;2024-03-22T02:33:03;24.95;;;18.33;;
30169;SDS011;46426;51.368;5.254;2024-03-22T02:33:34;20.50;;;16.48;;
30169;SDS011;46426;51.368;5.254;2024-03-22T02:34:05;24.00;;;17.33;;
30169;SDS011;46426;51.368;5.254;2024-03-22T02:34:37;23.15;;;16.95;;
30169;SDS011;46426;51.368;5.254;2024-03-22T02:35:08;21.73;;;17.43;;
30169;SDS011;46426;51.368;5.254;2024-03-22T02:35:39;21.17;;;16.60;;
30169;SDS011;46426;51.368;5.254;2024-03-22T02:36:11;21.30;;;17.07;;
30169;SDS011;46426;51.368;5.254;2024-03-22T02:36:42;20.40;;;15.80;;
30169;SDS011;46426;51.368;5.254;2024-03-22T02:37:13;20.37;;;16.47;;
30169;SDS011;46426;51.368;5.254;2024-03-22T02:37:44;21.50;;;16.27;;
30169;SDS011;46426;51.368;5.254;2024-03-22T02:38:16;22.57;;;17.20;;
30169;SDS011;46426;51.368;5.254;2024-03-22T02:38:47;21.23;;;16.30;;
30169;SDS011;46426;51.368;5.254;2024-03-22T02:39:18;21.03;;;16.93;;
30169;SDS011;46426;51.368;5.254;2024-03-22T02:39:49;21.60;;;16.20;;
30169;SDS011;46426;51.368;5.254;2024-03-22T02:40:21;21.80;;;16.27;;
30169;SDS011;46426;51.368;5.254;2024-03-22T02:40:52;20.57;;;16.97;;
30169;SDS011;46426;51.368;5.254;2024-03-22T02:41:23;20.40;;;15.03;;
30169;SDS011;46426;51.368;5.254;2024-03-22T02:41:55;20.37;;;15.97;;
30169;SDS011;46426;51.368;5.254;2024-03-22T02:42:26;19.80;;;15.60;;
30169;SDS011;46426;51.368;5.254;2024-03-22T02:42:57;22.87;;;17.27;;
30169;SDS011;46426;51.368;5.254;2024-03-22T02:43:28;20.87;;;16.40;;
30169;SDS011;46426;51.368;5.254;2024-03-22T02:44:00;22.10;;;17.37;;
30169;SDS011;46426;51.368;5.254;2024-03-22T02:44:31;24.80;;;17.07;;
30169;SDS011;46426;51.368;5.254;2024-03-22T02:45:02;22.70;;;16.90;;
30169;SDS011;46426;51.368;5.254;2024-03-22T02:45:33;20.77;;;16.53;;
30169;SDS011;46426;51.368;5.254;2024-03-22T02:46:04;20.93;;;15.57;;
30169;SDS011;46426;51.368;5.254;2024-03-22T02:46:35;24.47;;;16.87;;
30169;SDS011;46426;51.368;5.254;2024-03-22T02:47:06;22.27;;;16.23;;
30169;SDS011;46426;51.368;5.254;2024-03-22T02:47:38;19.20;;;14.90;;
30169;SDS011;46426;51.368;5.254;2024-03-22T02:48:09;22.63;;;16.58;;
30169;SDS011;46426;51.368;5.254;2024-03-22T02:48:40;21.23;;;16.10;;
30169;SDS011;46426;51.368;5.254;2024-03-22T02:49:11;21.87;;;16.80;;
30169;SDS011;46426;51.368;5.254;2024-03-22T02:49:42;22.53;;;16.10;;
30169;SDS011;46426;51.368;5.254;2024-03-22T02:50:13;19.10;;;14.93;;
30169;SDS011;46426;51.368;5.254;2024-03-22T02:50:44;21.20;;;16.67;;
30169;SDS011;46426;51.368;5.254;2024-03-22T02:51:16;25.17;;;16.53;;
30169;SDS011;46426;51.368;5.254;2024-03-22T02:51:47;21.10;;;15.97;;
30169;SDS011;46426;51.368;5.254;2024-03-22T02:52:18;24.02;;;17.17;;
30169;SDS011;46426;51.368;5.254;2024-03-22T02:52:49;21.07;;;16.77;;
30169;SDS011;46426;51.368;5.254;2024-03-22T02:53:20;23.03;;;15.90;;
30169;SDS011;46426;51.368;5.254;2024-03-22T02:53:51;20.77;;;16.43;;
30169;SDS011;46426;51.368;5.254;2024-03-22T02:54:22;20.00;;;16.73;;
30169;SDS011;46426;51.368;5.254;2024-03-22T02:54:53;22.37;;;16.60;;
30169;SDS011;46426;51.368;5.254;2024-03-22T02:55:25;22.85;;;16.75;;
30169;SDS011;46426;51.368;5.254;2024-03-22T02:55:56;22.00;;;16.23;;
30169;SDS011;46426;51.368;5.254;2024-03-22T02:56:30;19.83;;;15.77;;
30169;SDS011;46426;51.368;5.254;2024-03-22T02:57:01;19.83;;;16.50;;
30169;SDS011;46426;51.368;5.254;2024-03-22T02:57:32;20.20;;;15.90;;
30169;SDS011;46426;51.368;5.254;2024-03-22T02:58:04;19.40;;;14.97;;
30169;SDS011;46426;51.368;5.254;2024-03-22T02:58:36;21.70;;;15.95;;
30169;SDS011;46426;51.368;5.254;2024-03-22T02:59:07;19.60;;;14.67;;
30169;SDS011;46426;51.368;5.254;2024-03-22T02:59:38;21.63;;;15.37;;
30169;SDS011;46426;51.368;5.254;2024-03-22T03:00:09;21.83;;;15.75;;
30169;SDS011;46426;51.368;5.254;2024-03-22T03:00:41;18.73;;;14.90;;
30169;SDS011;46426;51.368;5.254;2024-03-22T03:01:12;19.37;;;14.97;;
30169;SDS011;46426;51.368;5.254;2024-03-22T03:01:43;19.60;;;15.60;;
30169;SDS011;46426;51.368;5.254;2024-03-22T03:02:14;22.33;;;16.40;;
30169;SDS011;46426;51.368;5.254;2024-03-22T03:02:45;19.80;;;15.90;;